Time;durP1;ratioP1;P1;durP2;ratioP2;P2;SDS_P1;SDS_P2;PMS_P1;PMS_P2;Temp;Humidity;BMP_temperature;BMP_pressure;BME280_temperature;BME280_humidity;BME280_pressure;Samples;Min_cycle;Max_cycle;Signal;HPM_P1;HPM_P2
2023/11/14 00:01:40;;;;;;;;;;;;;;;12.95;56.33;99194.69;4969616;27;98091;-68
2023/11/14 00:04:06;;;;;;;;;;;;;;;12.94;56.59;99196.59;4982873;27;114207;-64
2023/11/14 00:06:32;;;;;;;;;;;;;;;12.94;56.32;99191.19;4966482;27;98745;-69
2023/11/14 00:08:58;;;;;;;;;;;;;;;12.94;56.57;99206.63;4981859;27;123740;-69
2023/11/14 00:11:27;;;;;;;;;;;;;;;12.94;56.28;99201.22;4969654;27;98540;-63
2023/11/14 00:13:53;;;;;;;;;;;;;;;12.94;56.32;99201.22;4978175;27;99572;-64
2023/11/14 00:16:19;;;;;;;;;;;;;;;12.94;56.40;99217.44;4994142;27;97969;-69
2023/11/14 00:18:45;;;;;;;;;;;;;;;12.93;56.61;99215.81;4965828;27;98099;-64
2023/11/14 00:21:12;;;;;;;;;;;;;;;12.93;56.54;99221.22;4968967;27;98241;-68
2023/11/14 00:23:37;;;;;;;;;;;;;;;12.94;56.56;99225.53;4969963;27;100054;-69
2023/11/14 00:26:04;;;;;;;;;;;;;;;12.92;56.43;99225.03;4966471;27;130455;-64
2023/11/14 00:28:33;;;;;;;;;;;;;;;12.92;56.53;99220.44;4996199;27;99467;-68
2023/11/14 00:31:00;;;;;;;;;;;;;;;12.93;56.30;99223.94;4968866;27;98274;-64
2023/11/14 00:33:26;;;;;;;;;;;;;;;12.93;56.37;99219.34;4964431;27;99094;-64
2023/11/14 00:35:52;;;;;;;;;;;;;;;12.93;56.21;99215.81;4980579;27;111487;-64
2023/11/14 00:38:18;;;;;;;;;;;;;;;12.93;56.61;99221.22;4979735;27;99246;-64
2023/11/14 00:40:44;;;;;;;;;;;;;;;12.91;56.29;99213.44;4983775;27;99280;-68
2023/11/14 00:43:10;;;;;;;;;;;;;;;12.92;56.25;99227.75;4976991;27;121887;-64
2023/11/14 00:45:36;;;;;;;;;;;;;;;12.91;56.44;99221.53;4965736;27;101154;-64
2023/11/14 00:48:02;;;;;;;;;;;;;;;12.92;56.55;99233.16;4979421;27;98349;-64
2023/11/14 00:50:28;;;;;;;;;;;;;;;12.90;56.63;99225.38;4987611;27;99461;-64
2023/11/14 00:52:54;;;;;;;;;;;;;;;12.90;56.60;99230.78;4979124;27;102558;-69
2023/11/14 00:55:20;;;;;;;;;;;;;;;12.89;56.56;99234.59;4976344;27;120753;-64
2023/11/14 00:57:47;;;;;;;;;;;;;;;12.88;56.41;99234.91;4965364;27;98141;-69
2023/11/14 01:00:13;;;;;;;;;;;;;;;12.88;56.27;99243.00;4968459;27;98243;-69
2023/11/14 01:02:39;;;;;;;;;;;;;;;12.88;56.65;99240.31;4985824;27;108444;-68
2023/11/14 01:05:06;;;;;;;;;;;;;;;12.86;56.51;99240.63;4981112;27;98636;-63
2023/11/14 01:07:32;;;;;;;;;;;;;;;12.86;56.31;99256.06;4962263;27;98085;-69
2023/11/14 01:09:58;;;;;;;;;;;;;;;12.84;56.69;99245.53;4967141;27;98498;-64
2023/11/14 01:12:25;;;;;;;;;;;;;;;12.84;56.49;99252.84;4965693;27;99687;-64
2023/11/14 01:14:51;;;;;;;;;;;;;;;12.82;56.40;99253.19;4978369;27;97988;-64
2023/11/14 01:17:17;;;;;;;;;;;;;;;12.82;56.61;99264.00;4977709;27;98343;-63
2023/11/14 01:19:44;;;;;;;;;;;;;;;12.81;56.28;99257.00;4978718;27;99144;-63
2023/11/14 01:22:11;;;;;;;;;;;;;;;12.79;56.65;99256.50;4976417;27;101886;-68
2023/11/14 01:24:37;;;;;;;;;;;;;;;12.79;56.65;99259.19;4968018;27;98219;-63
2023/11/14 01:27:03;;;;;;;;;;;;;;;12.79;56.64;99261.91;4965775;27;98650;-63
2023/11/14 01:29:30;;;;;;;;;;;;;;;12.78;56.65;99257.63;4998301;27;98480;-63
2023/11/14 01:31:56;;;;;;;;;;;;;;;12.80;56.41;99254.59;4974010;27;101044;-68
2023/11/14 01:34:25;;;;;;;;;;;;;;;12.78;56.40;99254.91;4976111;27;120393;-68
2023/11/14 01:36:56;;;;;;;;;;;;;;;12.79;56.70;99245.69;4967691;27;98944;-69
2023/11/14 01:39:23;;;;;;;;;;;;;;;12.78;56.30;99236.78;4977564;27;98447;-64
2023/11/14 01:41:50;;;;;;;;;;;;;;;12.78;56.35;99236.78;4964722;27;98303;-63
2023/11/14 01:44:16;;;;;;;;;;;;;;;12.79;56.62;99245.69;4965108;27;98861;-63
2023/11/14 01:46:42;;;;;;;;;;;;;;;12.80;56.30;99249.19;4968820;27;98395;-68
2023/11/14 01:49:08;;;;;;;;;;;;;;;12.81;56.37;99259.69;4979916;27;108568;-63
2023/11/14 01:51:35;;;;;;;;;;;;;;;12.81;56.33;99259.69;4968068;27;98065;-68
2023/11/14 01:54:01;;;;;;;;;;;;;;;12.82;56.39;99266.69;4973903;27;98078;-63
2023/11/14 01:56:27;;;;;;;;;;;;;;;12.82;56.44;99255.88;4968182;27;117720;-68
2023/11/14 01:58:53;;;;;;;;;;;;;;;12.83;56.54;99257.47;4968600;27;99335;-68
2023/11/14 02:01:19;;;;;;;;;;;;;;;12.84;56.34;99260.97;4983398;27;98527;-63
2023/11/14 02:03:45;;;;;;;;;;;;;;;12.85;56.66;99276.06;4987110;27;99611;-63
2023/11/14 02:06:11;;;;;;;;;;;;;;;12.85;56.40;99266.09;4987107;27;98575;-68
2023/11/14 02:08:38;;;;;;;;;;;;;;;12.86;56.24;99264.19;4985217;27;98135;-63
2023/11/14 02:11:04;;;;;;;;;;;;;;;12.86;56.55;99266.88;4979561;27;100010;-69
2023/11/14 02:13:30;;;;;;;;;;;;;;;12.88;56.69;99270.06;4967531;27;98400;-68
2023/11/14 02:15:56;;;;;;;;;;;;;;;12.89;56.23;99258.94;4953018;27;100386;-63
2023/11/14 02:18:22;;;;;;;;;;;;;;;12.89;56.67;99255.41;4956003;27;98088;-68
2023/11/14 02:20:48;;;;;;;;;;;;;;;12.91;56.24;99264.03;4967339;27;104784;-63
2023/11/14 02:23:17;;;;;;;;;;;;;;;12.91;56.51;99262.13;4951765;27;100486;-68
2023/11/14 02:25:45;;;;;;;;;;;;;;;12.92;56.37;99271.81;4964627;27;98104;-69
2023/11/14 02:28:11;;;;;;;;;;;;;;;12.92;56.15;99271.81;4948021;27;98407;-63
2023/11/14 02:30:38;;;;;;;;;;;;;;;12.94;56.63;99275.03;4973124;27;98342;-68
2023/11/14 02:33:07;;;;;;;;;;;;;;;12.95;56.50;99265.00;4954111;27;113379;-69
2023/11/14 02:35:33;;;;;;;;;;;;;;;12.95;56.36;99268.50;4989621;27;108195;-63
2023/11/14 02:37:59;;;;;;;;;;;;;;;12.96;56.23;99280.91;4953071;27;99135;-63
2023/11/14 02:40:26;;;;;;;;;;;;;;;12.97;56.56;99273.63;4967577;27;98399;-63
2023/11/14 02:42:53;;;;;;;;;;;;;;;12.97;56.27;99276.31;4950211;28;98338;-63
2023/11/14 02:45:20;;;;;;;;;;;;;;;12.97;56.24;99279.81;4964445;27;98243;-68
2023/11/14 02:47:48;;;;;;;;;;;;;;;12.98;56.67;99277.91;4970899;27;98160;-69
2023/11/14 02:50:50;;;;;;;;;;;;;;;12.99;56.50;99285.69;4948117;27;98202;-69
2023/11/14 02:53:17;;;;;;;;;;;;;;;13.00;56.55;99279.16;5003664;27;99021;-69
2023/11/14 02:55:44;;;;;;;;;;;;;;;13.01;56.34;99283.50;4968688;27;98005;-68
2023/11/14 02:58:11;;;;;;;;;;;;;;;13.02;56.29;99284.28;4960007;27;98452;-68
2023/11/14 03:00:38;;;;;;;;;;;;;;;13.02;56.54;99292.41;4988102;27;98402;-68
2023/11/14 03:03:05;;;;;;;;;;;;;;;13.02;56.59;99281.59;4983105;27;98133;-63
2023/11/14 03:05:31;;;;;;;;;;;;;;;13.03;56.24;99283.97;4972388;27;99410;-68
2023/11/14 03:07:57;;;;;;;;;;;;;;;13.04;56.19;99279.34;4974920;27;98506;-63
2023/11/14 03:10:23;;;;;;;;;;;;;;;13.05;56.23;99291.78;4954964;27;98090;-63
2023/11/14 03:12:49;;;;;;;;;;;;;;;13.06;56.38;99298.78;4954127;27;98399;-68
2023/11/14 03:15:16;;;;;;;;;;;;;;;13.06;56.22;99290.66;4980381;27;114502;-68
2023/11/14 03:17:42;;;;;;;;;;;;;;;13.06;56.53;99290.66;4961274;27;98101;-69
2023/11/14 03:20:11;;;;;;;;;;;;;;;13.07;56.67;99303.06;4965910;27;111124;-64
2023/11/14 03:22:38;;;;;;;;;;;;;;;13.08;56.62;99296.56;4981821;27;98271;-63
2023/11/14 03:25:06;;;;;;;;;;;;;;;13.09;56.35;99297.38;4955276;27;107163;-68
2023/11/14 03:27:32;;;;;;;;;;;;;;;13.10;56.62;99296.25;4972434;27;98156;-63
2023/11/14 03:30:00;;;;;;;;;;;;;;;13.08;56.69;99298.47;4965987;27;99771;-63
2023/11/14 03:32:28;;;;;;;;;;;;;;;13.10;56.37;99299.75;4985664;27;100197;-64
2023/11/14 03:34:54;;;;;;;;;;;;;;;13.11;56.76;99297.84;4966114;27;99165;-63
2023/11/14 03:37:20;;;;;;;;;;;;;;;13.11;56.65;99298.63;4970078;27;98337;-63
2023/11/14 03:39:48;;;;;;;;;;;;;;;13.11;56.48;99304.06;4974488;27;98630;-63
2023/11/14 03:42:14;;;;;;;;;;;;;;;13.12;56.66;99305.63;4971620;27;97945;-69
2023/11/14 03:44:40;;;;;;;;;;;;;;;13.12;56.59;99297.53;4983442;27;108575;-69
2023/11/14 03:47:06;;;;;;;;;;;;;;;13.12;56.60;99300.22;4970190;27;98883;-63
2023/11/14 03:49:32;;;;;;;;;;;;;;;13.13;56.35;99301.06;4984258;27;100009;-68
2023/11/14 03:51:58;;;;;;;;;;;;;;;13.13;56.23;99295.63;4969568;27;115954;-63
2023/11/14 03:54:25;;;;;;;;;;;;;;;13.14;56.33;99302.63;4980463;27;98265;-68
2023/11/14 03:56:51;;;;;;;;;;;;;;;13.14;56.23;99303.44;4982898;27;98895;-63
2023/11/14 03:59:17;;;;;;;;;;;;;;;13.15;56.48;99298.81;4968308;27;98067;-63
2023/11/14 04:01:43;;;;;;;;;;;;;;;13.14;56.25;99319.66;4971380;27;98026;-63
2023/11/14 04:04:09;;;;;;;;;;;;;;;13.14;56.33;99310.75;4965640;27;99029;-68
2023/11/14 04:06:35;;;;;;;;;;;;;;;13.15;56.69;99312.34;4982479;27;99739;-69
2023/11/14 04:09:02;;;;;;;;;;;;;;;13.15;56.26;99317.75;4962861;27;99695;-68
2023/11/14 04:11:28;;;;;;;;;;;;;;;13.16;56.23;99316.63;4986127;27;98247;-63
2023/11/14 04:13:54;;;;;;;;;;;;;;;13.17;56.59;99331.78;4962772;27;99196;-63
2023/11/14 04:16:20;;;;;;;;;;;;;;;13.17;56.22;99329.06;4952168;27;99784;-63
2023/11/14 04:18:46;;;;;;;;;;;;;;;13.17;56.12;99332.56;4980537;27;99740;-68
2023/11/14 04:21:19;;;;;;;;;;;;;;;13.17;56.46;99329.88;4948942;27;107139;-68
2023/11/14 04:23:48;;;;;;;;;;;;;;;13.18;56.33;99342.28;4955588;27;98405;-63
2023/11/14 04:26:16;;;;;;;;;;;;;;;13.18;56.31;99349.59;4946297;27;98006;-68
2023/11/14 04:28:42;;;;;;;;;;;;;;;13.19;56.23;99357.41;4966527;27;98270;-68
2023/11/14 04:31:08;;;;;;;;;;;;;;;13.20;56.65;99360.91;4946809;27;126663;-68
2023/11/14 04:33:35;;;;;;;;;;;;;;;13.20;56.57;99360.91;4980963;27;99092;-64
2023/11/14 04:36:00;;;;;;;;;;;;;;;13.21;56.24;99349.00;4952189;27;98196;-68
2023/11/14 04:38:26;;;;;;;;;;;;;;;13.21;56.25;99352.50;4945599;27;97976;-68
2023/11/14 04:40:53;;;;;;;;;;;;;;;13.21;56.20;99338.97;4964469;27;101126;-68
2023/11/14 04:43:19;;;;;;;;;;;;;;;13.22;56.21;99340.56;4962414;27;98547;-63
2023/11/14 04:45:45;;;;;;;;;;;;;;;13.21;56.34;99340.88;4960428;27;99622;-68
2023/11/14 04:48:11;;;;;;;;;;;;;;;13.22;56.47;99332.44;4949192;27;127966;-68
2023/11/14 04:50:38;;;;;;;;;;;;;;;13.23;56.27;99334.06;4979656;27;126130;-63
2023/11/14 04:53:04;;;;;;;;;;;;;;;13.23;56.54;99333.25;4961438;27;99391;-63
2023/11/14 04:55:30;;;;;;;;;;;;;;;13.23;56.50;99327.84;4983583;27;98757;-63
2023/11/14 04:57:56;;;;;;;;;;;;;;;13.25;56.14;99317.53;4963080;27;101386;-63
2023/11/14 05:00:22;;;;;;;;;;;;;;;13.25;56.32;99334.56;4948879;27;120375;-68
2023/11/14 05:02:48;;;;;;;;;;;;;;;13.26;56.46;99327.22;4982983;27;99386;-68
2023/11/14 05:05:14;;;;;;;;;;;;;;;13.25;56.16;99323.72;4950182;27;98235;-68
2023/11/14 05:07:41;;;;;;;;;;;;;;;13.26;56.36;99341.56;4963996;27;98554;-63
2023/11/14 05:10:07;;;;;;;;;;;;;;;13.27;56.44;99336.94;4963414;27;98788;-69
2023/11/14 05:12:33;;;;;;;;;;;;;;;13.27;56.61;99339.63;4967293;27;101287;-66
2023/11/14 05:15:00;;;;;;;;;;;;;;;13.27;56.19;99326.91;4977762;27;98401;-70
2023/11/14 05:17:26;;;;;;;;;;;;;;;13.27;56.55;99340.44;4961621;27;100262;-67
2023/11/14 05:19:54;;;;;;;;;;;;;;;13.27;56.29;99340.44;4965718;27;125836;-63
2023/11/14 05:22:20;;;;;;;;;;;;;;;13.28;56.21;99346.66;4976866;27;99045;-67
2023/11/14 05:24:46;;;;;;;;;;;;;;;13.28;56.66;99349.34;4980867;27;98302;-68
2023/11/14 05:27:13;;;;;;;;;;;;;;;13.29;56.27;99342.06;4976306;27;98454;-63
2023/11/14 05:29:39;;;;;;;;;;;;;;;13.29;56.40;99337.44;4961902;27;98419;-69
2023/11/14 05:32:05;;;;;;;;;;;;;;;13.30;56.55;99335.53;4976166;27;98422;-68
2023/11/14 05:34:31;;;;;;;;;;;;;;;13.30;56.30;99335.53;4961858;27;98292;-63
2023/11/14 05:36:57;;;;;;;;;;;;;;;13.29;56.59;99334.72;4981973;27;98223;-63
2023/11/14 05:39:23;;;;;;;;;;;;;;;13.30;56.34;99339.03;4967699;27;98155;-63
2023/11/14 05:41:50;;;;;;;;;;;;;;;13.30;56.59;99325.50;4970925;27;98893;-68
2023/11/14 05:44:16;;;;;;;;;;;;;;;13.30;56.21;99330.91;4967348;27;98266;-68
2023/11/14 05:46:44;;;;;;;;;;;;;;;13.29;56.21;99340.13;4980273;27;98146;-63
2023/11/14 05:49:11;;;;;;;;;;;;;;;13.29;56.35;99334.72;4982370;27;98508;-68
2023/11/14 05:51:38;;;;;;;;;;;;;;;13.29;56.20;99340.13;4967111;27;98962;-68
2023/11/14 05:54:04;;;;;;;;;;;;;;;13.29;56.48;99339.34;4990213;27;98202;-63
2023/11/14 05:56:31;;;;;;;;;;;;;;;13.28;56.28;99333.09;4993718;27;99399;-67
2023/11/14 05:58:57;;;;;;;;;;;;;;;13.28;56.65;99335.81;4982829;27;98841;-63
2023/11/14 06:01:23;;;;;;;;;;;;;;;13.29;56.42;99337.44;4978491;27;98352;-69
2023/11/14 06:03:49;;;;;;;;;;;;;;;13.27;56.62;99334.22;4980364;27;98259;-67
2023/11/14 06:06:16;;;;;;;;;;;;;;;13.27;56.20;99340.44;4974532;27;99135;-71
2023/11/14 06:08:42;;;;;;;;;;;;;;;13.27;56.69;99339.63;4985110;27;98172;-62
2023/11/14 06:11:09;;;;;;;;;;;;;;;13.27;56.60;99345.06;4999625;27;110235;-67
2023/11/14 06:13:35;;;;;;;;;;;;;;;13.27;56.45;99350.47;4965623;27;98520;-64
2023/11/14 06:16:01;;;;;;;;;;;;;;;13.27;56.19;99343.13;4971032;27;98790;-63
2023/11/14 06:18:30;;;;;;;;;;;;;;;13.27;56.53;99339.63;4963067;27;98910;-68
2023/11/14 06:20:59;;;;;;;;;;;;;;;13.27;56.63;99340.44;4978781;27;98383;-68
2023/11/14 06:23:25;;;;;;;;;;;;;;;13.26;56.32;99336.13;4977634;27;97984;-63
2023/11/14 06:25:52;;;;;;;;;;;;;;;13.28;56.63;99338.53;4983116;27;98725;-63
2023/11/14 06:28:18;;;;;;;;;;;;;;;13.26;56.71;99341.56;4967358;27;98311;-68
2023/11/14 06:30:44;;;;;;;;;;;;;;;13.27;56.63;99350.47;4982741;27;98465;-63
2023/11/14 06:33:10;;;;;;;;;;;;;;;13.27;56.60;99350.47;4970699;27;98061;-64
2023/11/14 06:35:37;;;;;;;;;;;;;;;13.27;56.38;99343.13;4966093;27;99561;-64
2023/11/14 06:38:04;;;;;;;;;;;;;;;13.29;56.44;99344.75;4967184;27;98201;-64
2023/11/14 06:40:30;;;;;;;;;;;;;;;13.26;56.48;99338.84;4968085;27;98036;-63
2023/11/14 06:42:56;;;;;;;;;;;;;;;13.29;56.46;99348.25;4998142;27;99199;-64
2023/11/14 06:45:22;;;;;;;;;;;;;;;13.30;56.16;99341.72;4968213;27;98104;-68
2023/11/14 06:47:48;;;;;;;;;;;;;;;13.31;56.46;99332.50;4966757;27;116691;-65
2023/11/14 06:50:14;;;;;;;;;;;;;;;13.32;56.19;99338.69;4967615;27;98489;-69
2023/11/14 06:52:40;;;;;;;;;;;;;;;13.33;56.43;99345.72;4973087;27;98060;-68
2023/11/14 06:55:07;;;;;;;;;;;;;;;13.37;56.06;99358.31;4968975;27;100160;-68
2023/11/14 06:57:33;;;;;;;;;;;;;;;13.44;56.13;99365.97;4983395;27;98488;-64
2023/11/14 07:00:03;;;;;;;;;;;;;;;13.46;56.24;99361.06;4984721;27;98728;-64
2023/11/14 07:02:31;;;;;;;;;;;;;;;13.44;56.05;99358.69;4969303;27;98197;-64
2023/11/14 07:04:57;;;;;;;;;;;;;;;13.42;55.99;99354.69;4982480;27;98355;-64
2023/11/14 07:07:23;;;;;;;;;;;;;;;13.44;56.01;99352.44;4981384;27;98178;-63
2023/11/14 07:09:49;;;;;;;;;;;;;;;13.44;56.16;99352.44;4971014;27;98433;-64
2023/11/14 07:12:16;;;;;;;;;;;;;;;13.47;56.42;99359.94;4964293;27;98179;-68
2023/11/14 07:14:42;;;;;;;;;;;;;;;13.49;56.42;99353.09;4970805;27;99514;-63
2023/11/14 07:17:09;;;;;;;;;;;;;;;13.54;56.05;99364.91;4977707;27;98197;-69
2023/11/14 07:19:35;;;;;;;;;;;;;;;13.59;56.31;99364.75;4965515;27;98284;-64
2023/11/14 07:22:01;;;;;;;;;;;;;;;13.62;55.76;99351.41;4982348;27;98487;-64
2023/11/14 07:24:27;;;;;;;;;;;;;;;13.69;56.18;99354.44;4975900;27;98394;-64
2023/11/14 07:26:53;;;;;;;;;;;;;;;13.71;56.04;99351.41;4962947;27;100549;-64
2023/11/14 07:29:19;;;;;;;;;;;;;;;13.74;56.15;99351.59;4981472;27;99816;-63
2023/11/14 07:31:46;;;;;;;;;;;;;;;13.80;55.83;99352.25;4963867;27;98219;-68
2023/11/14 07:34:12;;;;;;;;;;;;;;;13.84;55.81;99360.56;4982972;27;119560;-64
2023/11/14 07:36:38;;;;;;;;;;;;;;;13.89;55.81;99365.81;4962509;27;98119;-64
2023/11/14 07:39:05;;;;;;;;;;;;;;;13.90;55.88;99372.81;4991194;27;99196;-64
2023/11/14 07:41:31;;;;;;;;;;;;;;;13.91;55.90;99364.38;4970561;27;99915;-68
2023/11/14 07:43:57;;;;;;;;;;;;;;;13.90;55.83;99359.28;4968497;27;98440;-68
2023/11/14 07:46:23;;;;;;;;;;;;;;;13.94;56.16;99358.31;4969095;27;105442;-64
2023/11/14 07:48:49;;;;;;;;;;;;;;;13.98;56.01;99359.28;4992166;27;127267;-68
2023/11/14 07:51:18;;;;;;;;;;;;;;;14.06;55.76;99363.13;4979563;27;101637;-64
2023/11/14 07:53:47;;;;;;;;;;;;;;;14.16;55.52;99367.44;4986121;27;98259;-64
2023/11/14 07:56:14;;;;;;;;;;;;;;;14.31;55.64;99356.16;4966209;27;98173;-64
2023/11/14 07:58:40;;;;;;;;;;;;;;;14.32;55.81;99370.50;4978821;27;98009;-68
2023/11/14 08:01:07;;;;;;;;;;;;;;;14.29;55.76;99374.63;4982238;27;98433;-68
2023/11/14 08:03:34;;;;;;;;;;;;;;;14.28;55.83;99375.75;4969978;27;99432;-69
2023/11/14 08:06:00;;;;;;;;;;;;;;;14.38;55.64;99382.75;5000499;27;98485;-68
2023/11/14 08:08:26;;;;;;;;;;;;;;;14.56;55.54;99391.72;4984658;27;119603;-68
2023/11/14 08:10:52;;;;;;;;;;;;;;;14.67;55.21;99390.28;4968403;27;98119;-64
2023/11/14 08:13:19;;;;;;;;;;;;;;;14.88;55.19;99385.78;4968560;27;99832;-69
2023/11/14 08:15:47;;;;;;;;;;;;;;;15.44;54.58;99380.38;4969228;27;99458;-69
2023/11/14 08:18:13;;;;;;;;;;;;;;;15.88;54.30;99379.09;4995674;27;98403;-64
2023/11/14 08:20:39;;;;;;;;;;;;;;;16.06;54.34;99362.66;4964384;27;98306;-64
2023/11/14 08:23:05;;;;;;;;;;;;;;;15.87;54.95;99363.09;4983295;27;98000;-64
2023/11/14 08:25:31;;;;;;;;;;;;;;;16.08;54.68;99371.31;4977824;27;124482;-64
2023/11/14 08:27:58;;;;;;;;;;;;;;;16.93;53.73;99371.72;4973971;27;98221;-64
2023/11/14 08:30:27;;;;;;;;;;;;;;;17.49;53.50;99360.38;4969433;27;98720;-69
2023/11/14 08:32:55;;;;;;;;;;;;;;;17.73;53.53;99362.31;4984720;27;98110;-67
2023/11/14 08:35:24;;;;;;;;;;;;;;;17.94;53.45;99362.19;4961565;27;100311;-64
2023/11/14 08:37:53;;;;;;;;;;;;;;;18.16;53.34;99360.91;4978563;27;99416;-64
2023/11/14 08:40:28;;;;;;;;;;;;;;;19.07;52.59;99352.97;4970485;27;98235;-63
2023/11/14 08:42:55;;;;;;;;;;;;;;;20.05;51.69;99368.63;4982057;27;97961;-63
2023/11/14 08:45:23;;;;;;;;;;;;;;;20.28;52.05;99367.94;4963762;27;101061;-68
2023/11/14 08:47:51;;;;;;;;;;;;;;;19.77;53.17;99367.97;4954790;27;98169;-63
2023/11/14 08:50:18;;;;;;;;;;;;;;;19.79;53.22;99368.41;4976050;27;98497;-63
2023/11/14 08:52:45;;;;;;;;;;;;;;;20.34;52.49;99391.13;4968393;27;99063;-64
2023/11/14 08:55:11;;;;;;;;;;;;;;;20.99;51.85;99395.97;4981062;27;100914;-68
2023/11/14 08:57:38;;;;;;;;;;;;;;;21.43;51.89;99393.66;4995184;27;98465;-63
2023/11/14 09:00:09;;;;;;;;;;;;;;;21.83;52.02;99400.56;4987056;27;97955;-63
2023/11/14 09:02:35;;;;;;;;;;;;;;;22.06;52.05;99386.81;4975258;27;98389;-68
2023/11/14 09:05:01;;;;;;;;;;;;;;;21.50;52.93;99396.53;4994860;27;101218;-64
2023/11/14 09:07:29;;;;;;;;;;;;;;;21.31;53.30;99394.59;4982047;27;99203;-64
2023/11/14 09:09:56;;;;;;;;;;;;;;;21.03;53.70;99399.56;4968780;27;98775;-68
2023/11/14 09:12:22;;;;;;;;;;;;;;;20.76;53.79;99398.66;4980225;27;98028;-64
2023/11/14 09:14:49;;;;;;;;;;;;;;;20.49;54.13;99398.50;4956050;27;101718;-64
2023/11/14 09:17:16;;;;;;;;;;;;;;;20.21;54.24;99395.94;4980073;27;98498;-69
2023/11/14 09:19:46;;;;;;;;;;;;;;;20.17;54.19;99405.22;4969405;27;98081;-64
2023/11/14 09:22:12;;;;;;;;;;;;;;;20.96;53.09;99402.19;4980401;27;98142;-64
2023/11/14 09:24:38;;;;;;;;;;;;;;;20.45;53.70;99405.81;5002108;27;112290;-64
2023/11/14 09:27:04;;;;;;;;;;;;;;;21.73;51.92;99407.47;5011376;27;98285;-64
2023/11/14 09:29:31;;;;;;;;;;;;;;;21.17;52.81;99421.75;4996776;27;99702;-64
2023/11/14 09:31:57;;;;;;;;;;;;;;;20.92;53.32;99413.06;4985730;27;98583;-69
2023/11/14 09:34:24;;;;;;;;;;;;;;;20.98;53.28;99410.81;4982430;27;98686;-63
2023/11/14 09:36:50;;;;;;;;;;;;;;;20.80;53.62;99437.84;4997388;27;98239;-68
2023/11/14 09:39:18;;;;;;;;;;;;;;;20.28;54.19;99411.72;5016295;27;97946;-64
2023/11/14 09:41:44;;;;;;;;;;;;;;;19.90;54.73;99412.41;4972185;27;98234;-68
2023/11/14 09:44:10;;;;;;;;;;;;;;;19.52;54.98;99400.91;4989000;27;99304;-64
2023/11/14 09:46:37;;;;;;;;;;;;;;;19.47;54.80;99394.94;5006302;27;98593;-68
2023/11/14 09:49:04;;;;;;;;;;;;;;;19.56;54.54;99395.53;4966856;27;99406;-63
2023/11/14 09:51:31;;;;;;;;;;;;;;;19.47;54.60;99386.72;5014854;27;98375;-63
2023/11/14 09:53:57;;;;;;;;;;;;;;;19.64;54.33;99386.38;4977998;27;99557;-68
2023/11/14 09:56:25;;;;;;;;;;;;;;;19.29;54.79;99384.31;4967021;27;99538;-63
2023/11/14 09:58:53;;;;;;;;;;;;;;;19.33;54.69;99385.22;4966519;27;97970;-63
2023/11/14 10:01:19;;;;;;;;;;;;;;;19.33;54.45;99376.22;4970341;27;99353;-69
2023/11/14 10:03:46;;;;;;;;;;;;;;;18.98;55.09;99382.38;4966526;27;98165;-68
2023/11/14 10:06:15;;;;;;;;;;;;;;;18.76;55.29;99388.38;4979860;27;97987;-63
2023/11/14 10:08:41;;;;;;;;;;;;;;;18.52;55.45;99383.78;4968702;27;98197;-63
2023/11/14 10:11:09;;;;;;;;;;;;;;;18.31;55.53;99390.22;4979025;27;97993;-63
2023/11/14 10:13:39;;;;;;;;;;;;;;;18.05;55.73;99381.63;4975895;27;98146;-63
2023/11/14 10:16:16;;;;;;;;;;;;;;;17.80;55.78;99391.72;4972076;27;98686;-63
2023/11/14 10:18:44;;;;;;;;;;;;;;;17.57;56.24;99391.38;4972067;27;98413;-68
2023/11/14 10:21:30;;;;;;;;;;;;;;;17.42;56.12;99401.78;4999789;27;98069;-68
2023/11/14 10:23:59;;;;;;;;;;;;;;;17.31;55.99;99389.75;4979969;27;98775;-63
2023/11/14 10:26:26;;;;;;;;;;;;;;;17.18;55.90;99380.75;4990696;27;98067;-68
2023/11/14 10:28:54;;;;;;;;;;;;;;;17.04;55.94;99374.03;4984047;27;99927;-63
2023/11/14 10:31:37;;;;;;;;;;;;;;;16.96;55.94;99378.41;4973706;27;98060;-67
2023/11/14 10:34:08;;;;;;;;;;;;;;;16.80;56.04;99397.31;5005916;27;98603;-63
2023/11/14 10:36:46;;;;;;;;;;;;;;;16.73;56.15;99402.47;4999724;27;98123;-63
2023/11/14 10:39:13;;;;;;;;;;;;;;;16.60;56.21;99398.09;4983651;27;98275;-69
2023/11/14 10:41:39;;;;;;;;;;;;;;;16.54;56.07;99396.69;5001358;27;98953;-69
2023/11/14 10:44:10;;;;;;;;;;;;;;;16.45;56.18;99389.41;4982169;27;98190;-69
2023/11/14 10:46:37;;;;;;;;;;;;;;;16.35;56.05;99389.81;4965789;27;97990;-64
2023/11/14 10:49:09;;;;;;;;;;;;;;;16.28;56.18;99397.69;4964751;27;98320;-69
2023/11/14 10:51:37;;;;;;;;;;;;;;;16.18;56.18;99382.56;4967272;27;99618;-64
2023/11/14 10:54:06;;;;;;;;;;;;;;;16.09;55.95;99373.69;4980102;27;98423;-64
2023/11/14 10:56:43;;;;;;;;;;;;;;;16.00;56.24;99375.66;4982119;27;98925;-69
2023/11/14 10:59:10;;;;;;;;;;;;;;;15.89;56.17;99380.69;4987653;27;98261;-65
2023/11/14 11:01:37;;;;;;;;;;;;;;;15.81;56.23;99376.09;4966533;27;100131;-68
2023/11/14 11:04:09;;;;;;;;;;;;;;;15.77;56.26;99366.22;4971288;27;98245;-69
2023/11/14 11:06:36;;;;;;;;;;;;;;;15.67;56.32;99387.16;4979060;27;98314;-64
2023/11/14 11:09:05;;;;;;;;;;;;;;;15.61;56.20;99390.38;4973337;27;99077;-69
2023/11/14 11:11:34;;;;;;;;;;;;;;;15.52;56.21;99392.31;4986068;27;98579;-69
2023/11/14 11:14:03;;;;;;;;;;;;;;;15.49;56.24;99401.94;4968608;27;97978;-64
2023/11/14 11:16:41;;;;;;;;;;;;;;;15.43;56.21;99387.72;4969548;27;98159;-69
2023/11/14 11:19:10;;;;;;;;;;;;;;;15.37;56.32;99382.81;4986301;27;98392;-69
2023/11/14 11:21:37;;;;;;;;;;;;;;;15.29;56.20;99389.03;4968056;27;98286;-64
2023/11/14 11:24:05;;;;;;;;;;;;;;;15.22;56.25;99384.13;4967331;27;99505;-64
2023/11/14 11:26:31;;;;;;;;;;;;;;;15.20;56.12;99376.28;4986715;27;98023;-69
2023/11/14 11:28:59;;;;;;;;;;;;;;;15.18;56.19;99373.13;4973077;27;98025;-69
2023/11/14 11:31:26;;;;;;;;;;;;;;;15.17;56.12;99378.88;4967849;27;99963;-64
2023/11/14 11:33:54;;;;;;;;;;;;;;;15.17;56.07;99389.75;4970851;27;100176;-69
2023/11/14 11:36:34;;;;;;;;;;;;;;;15.20;55.88;99386.38;4983094;27;98135;-64
2023/11/14 11:39:05;;;;;;;;;;;;;;;15.20;55.87;99389.88;5001742;27;98271;-64
2023/11/14 11:41:53;;;;;;;;;;;;;;;15.16;55.87;99401.69;4982286;27;99334;-64
2023/11/14 11:44:19;;;;;;;;;;;;;;;15.13;56.07;99399.63;4997870;27;98193;-69
2023/11/14 11:46:47;;;;;;;;;;;;;;;15.16;55.82;99399.00;4981990;27;99622;-64
2023/11/14 11:49:20;;;;;;;;;;;;;;;15.22;55.85;99403.13;4985489;27;99063;-64
2023/11/14 11:51:47;;;;;;;;;;;;;;;15.22;55.69;99403.94;4995889;27;98121;-66
2023/11/14 11:54:28;;;;;;;;;;;;;;;15.19;56.04;99396.44;4967069;27;101456;-69
2023/11/14 11:57:04;;;;;;;;;;;;;;;15.25;55.82;99409.81;5014081;27;98182;-64
2023/11/14 11:59:39;;;;;;;;;;;;;;;15.26;55.99;99398.66;4981303;27;99269;-69
2023/11/14 12:02:07;;;;;;;;;;;;;;;15.29;56.08;99398.00;4985011;27;98281;-65
2023/11/14 12:04:33;;;;;;;;;;;;;;;15.34;56.00;99380.75;4988916;27;98149;-64
2023/11/14 12:07:00;;;;;;;;;;;;;;;15.42;55.90;99390.78;4971229;27;98474;-69
2023/11/14 12:09:28;;;;;;;;;;;;;;;15.51;55.71;99390.75;4966732;27;98687;-64
2023/11/14 12:11:54;;;;;;;;;;;;;;;15.54;55.61;99390.88;4965908;27;100371;-65
2023/11/14 12:14:21;;;;;;;;;;;;;;;15.57;55.67;99381.31;4975296;27;98796;-69
2023/11/14 12:16:47;;;;;;;;;;;;;;;15.62;55.77;99387.34;4949962;27;98301;-64
2023/11/14 12:19:14;;;;;;;;;;;;;;;15.60;55.73;99388.78;4958115;27;99189;-64
2023/11/14 12:21:41;;;;;;;;;;;;;;;15.57;55.81;99387.53;4975068;27;115117;-69
2023/11/14 12:24:07;;;;;;;;;;;;;;;15.55;55.89;99388.97;4989900;27;98091;-69
2023/11/14 12:26:33;;;;;;;;;;;;;;;15.51;55.83;99383.38;4976594;27;98102;-69
2023/11/14 12:29:07;;;;;;;;;;;;;;;15.50;55.92;99384.50;4976469;27;104701;-69
2023/11/14 12:31:34;;;;;;;;;;;;;;;15.47;56.06;99379.72;4952313;27;98294;-64
2023/11/14 12:34:02;;;;;;;;;;;;;;;15.41;56.04;99372.91;4980549;27;99535;-64
2023/11/14 12:36:33;;;;;;;;;;;;;;;15.34;56.22;99367.97;4967000;27;98691;-69
2023/11/14 12:39:15;;;;;;;;;;;;;;;15.30;56.11;99368.94;4969232;27;98241;-69
2023/11/14 12:41:45;;;;;;;;;;;;;;;15.31;56.14;99363.19;4975762;27;98265;-64
2023/11/14 12:44:12;;;;;;;;;;;;;;;15.28;56.06;99358.38;4951793;27;98390;-69
2023/11/14 12:46:40;;;;;;;;;;;;;;;15.27;55.97;99361.44;4966580;27;98439;-64